Time;durP1;ratioP1;P1;durP2;ratioP2;P2;SDS_P1;SDS_P2;PMS_P1;PMS_P2;Temp;Humidity;BMP_temperature;BMP_pressure;BME280_temperature;BME280_humidity;BME280_pressure;Samples;Min_cycle;Max_cycle;Signal;HPM_P1;HPM_P2
2022/10/29 00:01:29;;;;;;;1.60;1.60;;;20.60;75.80;;;;;;5080171;28;43498;-72
2022/10/29 00:03:58;;;;;;;1.40;1.40;;;20.60;75.80;;;;;;5085510;28;43429;-71
2022/10/29 00:06:27;;;;;;;1.50;1.50;;;20.70;75.30;;;;;;5062129;28;44141;-72
2022/10/29 00:08:55;;;;;;;1.60;1.60;;;20.80;75.60;;;;;;5085579;28;43617;-71
2022/10/29 00:11:22;;;;;;;1.37;1.37;;;20.90;74.70;;;;;;5086264;28;43530;-73
2022/10/29 00:13:53;;;;;;;1.40;1.40;;;20.80;74.60;;;;;;5079844;28;43434;-72
2022/10/29 00:16:22;;;;;;;1.60;1.60;;;20.80;75.00;;;;;;5086911;28;43408;-72
2022/10/29 00:18:50;;;;;;;1.30;1.30;;;20.80;74.90;;;;;;5086478;28;43894;-72
2022/10/29 00:21:20;;;;;;;1.60;1.60;;;20.80;74.80;;;;;;5085018;27;44779;-72
2022/10/29 00:23:48;;;;;;;1.30;1.30;;;20.80;74.90;;;;;;5086020;28;43533;-71
2022/10/29 00:26:16;;;;;;;1.20;1.20;;;20.70;75.00;;;;;;5065447;28;43646;-71
2022/10/29 00:28:44;;;;;;;1.30;1.30;;;20.70;75.40;;;;;;5086101;28;43853;-72
2022/10/29 00:31:17;;;;;;;1.40;1.30;;;20.70;75.40;;;;;;5086597;28;44005;-70
2022/10/29 00:33:45;;;;;;;1.30;1.30;;;20.80;75.00;;;;;;5087122;27;43416;-71
2022/10/29 00:36:14;;;;;;;1.40;1.40;;;20.90;74.60;;;;;;5089929;28;43530;-72
2022/10/29 00:38:43;;;;;;;1.30;1.30;;;20.90;75.40;;;;;;5089596;28;43670;-71
2022/10/29 00:41:12;;;;;;;1.50;1.50;;;20.80;74.80;;;;;;5088588;28;43550;-70
2022/10/29 00:43:41;;;;;;;1.50;1.50;;;20.80;74.90;;;;;;5071187;28;43502;-71
2022/10/29 00:46:11;;;;;;;1.40;1.40;;;20.80;74.80;;;;;;5086308;28;43469;-71
2022/10/29 00:48:40;;;;;;;1.30;1.30;;;20.80;74.80;;;;;;5089643;28;44274;-71
2022/10/29 00:51:09;;;;;;;1.50;1.50;;;20.70;74.80;;;;;;5092406;27;44621;-71
2022/10/29 00:53:38;;;;;;;1.30;1.27;;;20.70;75.00;;;;;;5089608;28;43398;-72
2022/10/29 00:56:08;;;;;;;1.43;1.43;;;20.60;75.40;;;;;;5073857;28;43509;-72
2022/10/29 00:58:36;;;;;;;1.40;1.40;;;20.70;75.40;;;;;;5070895;28;45624;-71
2022/10/29 01:01:04;;;;;;;1.60;1.60;;;20.60;75.30;;;;;;5088953;28;43405;-71
2022/10/29 01:03:31;;;;;;;1.30;1.30;;;20.60;75.30;;;;;;5089623;28;43407;-73
2022/10/29 01:06:00;;;;;;;1.80;1.80;;;20.60;75.60;;;;;;5072070;28;43867;-72
2022/10/29 01:08:27;;;;;;;1.50;1.50;;;20.60;75.90;;;;;;5069765;28;45383;-72
2022/10/29 01:10:59;;;;;;;1.47;1.47;;;20.60;75.60;;;;;;5070719;28;44669;-70
2022/10/29 01:13:45;;;;;;;1.40;1.40;;;20.80;75.10;;;;;;5089853;28;43450;-71
2022/10/29 01:16:18;;;;;;;1.43;1.43;;;20.90;74.60;;;;;;5089300;28;44175;-73
2022/10/29 01:18:48;;;;;;;1.40;1.40;;;20.90;74.60;;;;;;5087494;27;43923;-73
2022/10/29 01:21:39;;;;;;;1.30;1.30;;;20.90;74.80;;;;;;5083037;28;43470;-72
2022/10/29 01:24:51;;;;;;;1.60;1.60;;;20.80;74.60;;;;;;5089002;28;43336;-70
2022/10/29 01:27:43;;;;;;;1.47;1.47;;;20.80;74.60;;;;;;5067399;28;43794;-71
2022/10/29 01:30:20;;;;;;;1.53;1.40;;;20.80;74.80;;;;;;5089073;28;43611;-71
2022/10/29 01:32:56;;;;;;;1.43;1.43;;;20.70;75.00;;;;;;5082901;28;43419;-70
2022/10/29 01:35:27;;;;;;;1.43;1.43;;;20.70;75.30;;;;;;5088944;28;43438;-70
2022/10/29 01:38:01;;;;;;;1.40;1.40;;;20.70;75.30;;;;;;5088609;28;43563;-72
2022/10/29 01:40:32;;;;;;;1.50;1.50;;;20.70;75.30;;;;;;5087727;28;43959;-73
2022/10/29 01:43:04;;;;;;;1.77;1.70;;;20.60;75.30;;;;;;5089016;28;43444;-71
2022/10/29 01:45:33;;;;;;;1.50;1.50;;;20.60;75.70;;;;;;5087762;28;43464;-72
2022/10/29 01:48:05;;;;;;;1.47;1.47;;;20.60;75.80;;;;;;5068488;28;44007;-73
2022/10/29 01:50:33;;;;;;;1.27;1.27;;;20.70;76.20;;;;;;5070173;28;45926;-71
2022/10/29 01:53:01;;;;;;;1.73;1.63;;;20.80;75.10;;;;;;5088222;28;43461;-72
2022/10/29 01:55:29;;;;;;;1.50;1.50;;;21.00;74.50;;;;;;5088776;28;43435;-70
2022/10/29 01:57:57;;;;;;;1.33;1.33;;;21.00;74.20;;;;;;5086264;27;43396;-71
2022/10/29 02:00:26;;;;;;;1.30;1.30;;;21.00;74.20;;;;;;5088295;28;43729;-71
2022/10/29 02:03:00;;;;;;;1.50;1.50;;;21.00;74.30;;;;;;5091196;27;44687;-70
2022/10/29 02:05:32;;;;;;;1.50;1.50;;;20.80;74.50;;;;;;5088711;28;43378;-71
2022/10/29 02:08:05;;;;;;;1.70;1.70;;;20.80;75.10;;;;;;5071151;28;43609;-71
2022/10/29 02:10:33;;;;;;;1.50;1.50;;;20.80;75.10;;;;;;5084698;28;43882;-71
2022/10/29 02:13:01;;;;;;;1.40;1.40;;;20.70;75.10;;;;;;5081990;28;43343;-71
2022/10/29 02:15:31;;;;;;;1.43;1.43;;;20.70;75.10;;;;;;5088549;28;43402;-71
2022/10/29 02:17:59;;;;;;;1.50;1.50;;;20.70;75.30;;;;;;5082219;28;43530;-70
2022/10/29 02:20:27;;;;;;;1.60;1.60;;;20.60;75.60;;;;;;5081770;27;46185;-72
2022/10/29 02:22:57;;;;;;;1.50;1.50;;;20.60;75.60;;;;;;5085113;28;43453;-73
2022/10/29 02:25:24;;;;;;;1.37;1.37;;;20.60;75.60;;;;;;5082162;28;43475;-72
2022/10/29 02:27:52;;;;;;;1.40;1.40;;;20.60;75.40;;;;;;5088418;28;43412;-72
2022/10/29 02:30:21;;;;;;;1.57;1.57;;;20.60;75.50;;;;;;5087936;28;43904;-70
2022/10/29 02:32:49;;;;;;;1.53;1.53;;;20.50;75.80;;;;;;5068882;28;45065;-71
2022/10/29 02:35:16;;;;;;;1.50;1.50;;;20.60;75.90;;;;;;5087970;28;43476;-71
2022/10/29 02:37:44;;;;;;;1.53;1.53;;;20.70;75.40;;;;;;5088138;28;43403;-71
2022/10/29 02:40:14;;;;;;;1.33;1.33;;;20.80;74.90;;;;;;5086149;28;43631;-70
2022/10/29 02:42:42;;;;;;;1.50;1.50;;;21.00;74.30;;;;;;5087798;28;43974;-71
2022/10/29 02:45:10;;;;;;;1.57;1.57;;;21.10;74.10;;;;;;5087906;28;43365;-71
2022/10/29 02:47:38;;;;;;;1.80;1.80;;;21.00;74.00;;;;;;5087960;28;43443;-71
2022/10/29 02:50:07;;;;;;;1.60;1.60;;;21.00;74.20;;;;;;5087699;28;44240;-72
2022/10/29 02:52:35;;;;;;;1.50;1.50;;;20.90;74.40;;;;;;5087618;27;43427;-71
2022/10/29 02:55:03;;;;;;;1.43;1.43;;;20.80;74.80;;;;;;5087707;28;43998;-71
2022/10/29 02:57:32;;;;;;;1.80;1.73;;;20.80;74.90;;;;;;5088283;27;43367;-72
2022/10/29 03:00:00;;;;;;;1.40;1.40;;;20.70;74.90;;;;;;5087192;28;43908;-72
2022/10/29 03:02:28;;;;;;;1.40;1.40;;;20.70;75.00;;;;;;5087271;28;44106;-71
2022/10/29 03:04:57;;;;;;;1.80;1.80;;;20.70;75.10;;;;;;5087623;28;43484;-71
2022/10/29 03:07:25;;;;;;;1.87;1.87;;;20.60;75.50;;;;;;5082418;28;43460;-72
2022/10/29 03:09:53;;;;;;;1.70;1.70;;;20.60;75.50;;;;;;5069145;28;46051;-71
2022/10/29 03:12:21;;;;;;;1.40;1.40;;;20.60;75.40;;;;;;5087351;28;43446;-71
2022/10/29 03:14:50;;;;;;;1.47;1.47;;;20.60;75.40;;;;;;5087330;28;43372;-71
2022/10/29 03:17:18;;;;;;;1.40;1.40;;;20.60;75.50;;;;;;5087774;28;43987;-72
2022/10/29 03:19:46;;;;;;;1.33;1.33;;;20.50;75.80;;;;;;5087374;28;43900;-72
2022/10/29 03:22:13;;;;;;;1.50;1.50;;;20.60;75.90;;;;;;5081898;28;43471;-71
2022/10/29 03:24:41;;;;;;;1.60;1.60;;;20.60;75.60;;;;;;5087370;28;44046;-71
2022/10/29 03:27:09;;;;;;;1.47;1.47;;;20.80;75.10;;;;;;5087573;28;43446;-70
2022/10/29 03:29:37;;;;;;;1.67;1.67;;;20.90;74.60;;;;;;5086356;28;44103;-71
2022/10/29 03:32:07;;;;;;;1.67;1.67;;;21.00;74.20;;;;;;5086892;28;43826;-71
2022/10/29 03:34:34;;;;;;;1.40;1.40;;;21.00;74.10;;;;;;5087046;28;43455;-72
2022/10/29 03:37:02;;;;;;;1.53;1.53;;;20.90;74.20;;;;;;5087430;28;43424;-74
2022/10/29 03:39:30;;;;;;;1.50;1.50;;;20.80;74.50;;;;;;5086871;28;43670;-73
2022/10/29 03:41:58;;;;;;;1.70;1.70;;;20.80;74.90;;;;;;5064136;28;45109;-71
2022/10/29 03:44:26;;;;;;;1.70;1.70;;;20.70;75.00;;;;;;5086685;28;43943;-73
2022/10/29 03:46:54;;;;;;;1.90;1.90;;;20.70;75.00;;;;;;5087061;28;44186;-71
2022/10/29 03:49:23;;;;;;;1.70;1.70;;;20.70;75.10;;;;;;5087079;28;43987;-71
2022/10/29 03:51:51;;;;;;;1.40;1.40;;;20.70;75.30;;;;;;5086102;27;43538;-72
2022/10/29 03:54:19;;;;;;;1.53;1.53;;;20.60;75.60;;;;;;5087190;28;43471;-72
2022/10/29 03:56:47;;;;;;;1.50;1.50;;;20.60;75.60;;;;;;5087275;28;43495;-71
2022/10/29 03:59:15;;;;;;;1.50;1.50;;;20.60;75.60;;;;;;5084938;28;44097;-71
2022/10/29 04:01:43;;;;;;;1.50;1.50;;;20.60;75.50;;;;;;5049807;28;44695;-70
2022/10/29 04:04:11;;;;;;;1.70;1.70;;;20.60;75.50;;;;;;5046102;28;44036;-71
2022/10/29 04:06:40;;;;;;;1.80;1.80;;;20.50;75.70;;;;;;5046463;28;43479;-71
2022/10/29 04:09:08;;;;;;;1.70;1.70;;;20.60;76.00;;;;;;5045064;28;43853;-72
2022/10/29 04:11:36;;;;;;;1.70;1.70;;;20.70;75.70;;;;;;5045803;28;43533;-70
2022/10/29 04:14:04;;;;;;;1.77;1.67;;;20.80;75.10;;;;;;5042856;28;43472;-72
2022/10/29 04:16:32;;;;;;;2.00;1.90;;;20.80;74.60;;;;;;5046222;28;44061;-72
2022/10/29 04:19:00;;;;;;;1.90;1.80;;;20.80;74.60;;;;;;5045958;28;43555;-71
2022/10/29 04:21:28;;;;;;;1.67;1.67;;;20.80;74.80;;;;;;5044355;28;45142;-71
2022/10/29 04:24:17;;;;;;;1.90;1.90;;;20.80;74.80;;;;;;5045865;28;43425;-70
2022/10/29 04:27:05;;;;;;;1.60;1.60;;;20.80;74.80;;;;;;5042701;28;43442;-72
2022/10/29 04:29:52;;;;;;;1.53;1.53;;;20.80;74.90;;;;;;5041877;28;43591;-71
2022/10/29 04:32:20;;;;;;;1.90;1.90;;;20.70;75.10;;;;;;5045836;28;43419;-71
2022/10/29 04:34:48;;;;;;;1.73;1.70;;;20.60;75.40;;;;;;5046061;28;43395;-71
2022/10/29 04:37:16;;;;;;;1.93;1.77;;;20.70;75.40;;;;;;5046099;28;43435;-72
2022/10/29 04:39:45;;;;;;;1.60;1.60;;;20.60;75.40;;;;;;5045043;28;44039;-71
2022/10/29 04:42:13;;;;;;;1.77;1.77;;;20.60;75.40;;;;;;5043811;28;43360;-72
2022/10/29 04:44:41;;;;;;;1.60;1.60;;;20.60;75.60;;;;;;5045555;28;43478;-71
2022/10/29 04:47:09;;;;;;;1.63;1.63;;;20.60;75.90;;;;;;5046276;28;43909;-71
2022/10/29 04:49:37;;;;;;;1.60;1.60;;;20.60;75.80;;;;;;5044894;28;43611;-72
2022/10/29 04:52:05;;;;;;;1.87;1.67;;;20.70;75.30;;;;;;5045368;28;43394;-70
2022/10/29 04:54:33;;;;;;;1.70;1.70;;;20.90;74.90;;;;;;5045311;28;43383;-73
2022/10/29 04:57:02;;;;;;;1.53;1.53;;;21.00;74.30;;;;;;5044834;28;43567;-71
2022/10/29 04:59:30;;;;;;;1.80;1.80;;;21.00;74.10;;;;;;5045398;28;43584;-71
2022/10/29 05:01:58;;;;;;;1.60;1.50;;;21.00;74.10;;;;;;5078996;28;43405;-72
2022/10/29 05:04:28;;;;;;;1.70;1.70;;;21.00;74.40;;;;;;5085553;28;43434;-72
2022/10/29 05:06:56;;;;;;;1.60;1.60;;;20.90;74.60;;;;;;5086379;28;43498;-71
2022/10/29 05:09:24;;;;;;;1.63;1.63;;;20.80;75.10;;;;;;5085520;28;43902;-71
2022/10/29 05:11:51;;;;;;;1.80;1.70;;;20.80;75.10;;;;;;5085626;28;43504;-71
2022/10/29 05:14:21;;;;;;;1.90;1.90;;;20.70;75.10;;;;;;5085815;28;43375;-71
2022/10/29 05:16:49;;;;;;;1.70;1.70;;;20.70;75.10;;;;;;5086232;28;43471;-73
2022/10/29 05:19:16;;;;;;;1.70;1.70;;;20.70;75.30;;;;;;5082670;27;43912;-71
2022/10/29 05:21:44;;;;;;;1.83;1.83;;;20.60;75.60;;;;;;5088462;28;43935;-71
2022/10/29 05:24:12;;;;;;;1.80;1.80;;;20.60;75.80;;;;;;5089194;28;43459;-70
2022/10/29 05:26:40;;;;;;;1.50;1.50;;;20.60;75.60;;;;;;5086537;28;44028;-72
2022/10/29 05:29:08;;;;;;;1.60;1.60;;;20.60;75.60;;;;;;5087528;27;45625;-71
2022/10/29 05:31:37;;;;;;;1.90;1.90;;;20.60;75.60;;;;;;5089446;28;43908;-71
2022/10/29 05:34:05;;;;;;;1.67;1.67;;;20.50;75.60;;;;;;5089179;28;44009;-71
2022/10/29 05:36:33;;;;;;;1.63;1.63;;;20.50;76.00;;;;;;5089182;28;43507;-72
2022/10/29 05:39:01;;;;;;;2.00;2.00;;;20.60;75.90;;;;;;5070451;28;45821;-71
2022/10/29 05:41:29;;;;;;;1.80;1.70;;;20.70;75.40;;;;;;5086976;28;43475;-71
2022/10/29 05:43:57;;;;;;;1.83;1.80;;;20.90;74.90;;;;;;5088938;28;43501;-71
2022/10/29 05:46:25;;;;;;;1.87;1.87;;;21.00;74.30;;;;;;5089222;28;43976;-71
2022/10/29 05:48:54;;;;;;;1.90;1.80;;;21.00;74.10;;;;;;5088469;28;43817;-72
2022/10/29 05:51:22;;;;;;;1.90;1.90;;;21.00;74.20;;;;;;5087125;27;44925;-71
2022/10/29 05:53:50;;;;;;;1.70;1.70;;;20.90;74.30;;;;;;5088478;28;43392;-72
2022/10/29 05:56:18;;;;;;;1.83;1.83;;;20.80;74.50;;;;;;5070716;28;43531;-72
2022/10/29 05:58:48;;;;;;;1.57;1.57;;;20.80;75.10;;;;;;5088576;28;43849;-71
2022/10/29 06:01:18;;;;;;;1.70;1.70;;;20.70;75.00;;;;;;5069898;28;44566;-71
2022/10/29 06:03:46;;;;;;;1.80;1.80;;;20.70;75.10;;;;;;5088383;28;43435;-70
2022/10/29 06:06:18;;;;;;;1.90;1.90;;;20.70;75.90;;;;;;5070226;28;44005;-71
2022/10/29 06:08:47;;;;;;;1.70;1.70;;;20.60;75.20;;;;;;5086222;28;43600;-73
2022/10/29 06:11:14;;;;;;;1.60;1.60;;;20.60;75.70;;;;;;5069546;28;44757;-73
2022/10/29 06:13:42;;;;;;;1.83;1.83;;;20.60;75.70;;;;;;5070112;28;43918;-72
2022/10/29 06:16:10;;;;;;;1.80;1.80;;;20.60;75.70;;;;;;5088816;28;43434;-71
2022/10/29 06:18:38;;;;;;;1.90;1.90;;;20.60;75.60;;;;;;5070486;28;44323;-72
2022/10/29 06:21:06;;;;;;;1.70;1.70;;;20.50;75.50;;;;;;5087481;28;43422;-72
2022/10/29 06:23:35;;;;;;;1.87;1.87;;;20.50;75.90;;;;;;5070097;28;43470;-72
2022/10/29 06:26:03;;;;;;;1.87;1.87;;;20.50;76.00;;;;;;5088311;28;43501;-71
2022/10/29 06:28:31;;;;;;;1.73;1.70;;;20.60;75.70;;;;;;5070079;28;45864;-71
2022/10/29 06:31:01;;;;;;;2.00;2.00;;;20.80;75.20;;;;;;5087949;27;43742;-72
2022/10/29 06:33:29;;;;;;;1.70;1.70;;;20.90;74.60;;;;;;5092639;27;43446;-70
2022/10/29 06:35:58;;;;;;;2.03;1.93;;;21.00;74.20;;;;;;5088691;28;43439;-71
2022/10/29 06:38:26;;;;;;;1.70;1.70;;;21.00;74.10;;;;;;5088001;28;43924;-71
2022/10/29 06:40:56;;;;;;;1.70;1.70;;;20.90;74.20;;;;;;5085283;28;43606;-70
2022/10/29 06:43:23;;;;;;;1.63;1.63;;;20.90;74.50;;;;;;5088096;28;43410;-71
2022/10/29 06:45:51;;;;;;;2.10;2.10;;;20.80;74.80;;;;;;5088473;28;43923;-70
2022/10/29 06:48:19;;;;;;;1.87;1.87;;;20.70;75.10;;;;;;5086626;28;45033;-70
2022/10/29 06:50:49;;;;;;;1.70;1.70;;;20.70;75.10;;;;;;5067500;28;44543;-72
2022/10/29 06:53:17;;;;;;;2.47;2.27;;;20.70;75.10;;;;;;5087644;28;43580;-71
2022/10/29 06:55:45;;;;;;;1.70;1.70;;;20.60;75.20;;;;;;5069805;28;43449;-72
2022/10/29 06:58:15;;;;;;;1.80;1.80;;;20.60;75.40;;;;;;5087571;28;43580;-73
2022/10/29 07:00:43;;;;;;;1.90;1.80;;;20.50;75.70;;;;;;5086336;27;44655;-71
2022/10/29 07:03:12;;;;;;;1.90;1.90;;;20.60;75.60;;;;;;5069221;28;43435;-71
2022/10/29 07:05:40;;;;;;;1.80;1.80;;;20.60;75.60;;;;;;5071437;28;43503;-71
2022/10/29 07:08:08;;;;;;;1.70;1.70;;;20.50;75.40;;;;;;5087688;28;43948;-70
2022/10/29 07:10:36;;;;;;;1.90;1.90;;;20.50;75.60;;;;;;5087336;28;43414;-72
2022/10/29 07:13:04;;;;;;;1.77;1.77;;;20.50;76.10;;;;;;5087573;28;43430;-71
2022/10/29 07:15:33;;;;;;;2.10;2.10;;;20.50;75.80;;;;;;5079713;27;44041;-71
2022/10/29 07:18:02;;;;;;;1.80;1.80;;;20.50;75.80;;;;;;5068535;28;45285;-71
2022/10/29 07:20:30;;;;;;;1.77;1.77;;;20.50;75.80;;;;;;5081174;28;43431;-71
2022/10/29 07:22:59;;;;;;;1.80;1.80;;;20.40;75.70;;;;;;5067431;28;43445;-73
2022/10/29 07:25:27;;;;;;;1.80;1.80;;;20.40;76.20;;;;;;5065353;28;43627;-71
2022/10/29 07:27:55;;;;;;;1.83;1.83;;;20.50;76.30;;;;;;5068789;28;45724;-71
2022/10/29 07:30:23;;;;;;;2.17;2.00;;;20.60;75.90;;;;;;5065130;28;44723;-71
2022/10/29 07:32:52;;;;;;;2.00;2.00;;;20.70;74.90;;;;;;5087067;28;43339;-73
2022/10/29 07:35:20;;;;;;;4.83;1.93;;;20.90;74.30;;;;;;5087559;28;43431;-71
2022/10/29 07:37:48;;;;;;;3.13;1.93;;;20.90;73.80;;;;;;5086607;28;43603;-72
2022/10/29 07:40:16;;;;;;;2.03;1.90;;;20.90;73.70;;;;;;5086576;28;43525;-71
2022/10/29 07:42:44;;;;;;;3.33;1.90;;;20.90;73.80;;;;;;5067831;28;43446;-72
2022/10/29 07:45:12;;;;;;;2.43;2.10;;;20.80;74.00;;;;;;5067563;28;43521;-72
2022/10/29 07:47:41;;;;;;;2.20;2.00;;;20.80;74.40;;;;;;5086665;28;43833;-71
2022/10/29 07:50:11;;;;;;;2.37;2.13;;;20.70;74.50;;;;;;5087109;28;43427;-71
2022/10/29 07:52:39;;;;;;;3.40;2.10;;;20.60;74.50;;;;;;5082983;27;43454;-71
2022/10/29 07:55:08;;;;;;;2.10;2.00;;;20.60;74.60;;;;;;5087430;28;43831;-72
2022/10/29 07:57:36;;;;;;;2.13;2.13;;;20.60;74.80;;;;;;5086880;28;43870;-71
2022/10/29 08:00:04;;;;;;;2.73;2.30;;;20.60;75.00;;;;;;5086678;28;43449;-70
2022/10/29 08:02:41;;;;;;;2.27;2.27;;;20.50;75.10;;;;;;5086500;28;43915;-73
2022/10/29 08:05:10;;;;;;;2.03;1.90;;;20.50;75.00;;;;;;5069762;28;43483;-71
2022/10/29 08:07:38;;;;;;;2.33;2.20;;;20.50;75.10;;;;;;5082837;28;43854;-71
2022/10/29 08:10:07;;;;;;;2.20;2.10;;;20.50;75.10;;;;;;5085526;28;44011;-72
2022/10/29 08:12:35;;;;;;;3.67;2.30;;;20.50;75.30;;;;;;5086392;28;43402;-71
2022/10/29 08:15:04;;;;;;;2.50;2.30;;;20.40;75.40;;;;;;5087217;28;44028;-71
2022/10/29 08:17:32;;;;;;;2.60;2.40;;;20.50;75.30;;;;;;5089747;27;45284;-71
2022/10/29 08:20:00;;;;;;;4.67;2.67;;;20.60;75.00;;;;;;5086625;28;43417;-71
2022/10/29 08:22:31;;;;;;;3.33;2.70;;;20.70;74.40;;;;;;5086901;28;43411;-72
2022/10/29 08:24:59;;;;;;;2.83;2.60;;;20.80;74.10;;;;;;5087015;28;43502;-73
2022/10/29 08:27:27;;;;;;;3.33;3.03;;;20.80;73.90;;;;;;5086732;28;44806;-71
2022/10/29 08:29:55;;;;;;;2.73;2.50;;;20.80;74.10;;;;;;5086278;28;43436;-72
2022/10/29 08:32:23;;;;;;;3.50;2.50;;;20.70;74.30;;;;;;5068152;28;43445;-72
2022/10/29 08:34:51;;;;;;;3.33;2.80;;;20.70;74.60;;;;;;5087071;28;43501;-71
2022/10/29 08:37:19;;;;;;;3.23;2.93;;;20.60;74.90;;;;;;5086069;28;43844;-72
2022/10/29 08:39:48;;;;;;;3.07;2.87;;;20.60;74.90;;;;;;5086082;28;43509;-72
2022/10/29 08:42:22;;;;;;;3.80;2.77;;;20.60;75.60;;;;;;5067966;28;43482;-71
2022/10/29 08:44:57;;;;;;;2.60;2.33;;;20.60;75.10;;;;;;5086717;28;43860;-73
2022/10/29 08:47:25;;;;;;;2.73;2.60;;;20.50;75.10;;;;;;5086462;28;43919;-72
2022/10/29 08:50:00;;;;;;;3.03;2.70;;;20.50;75.50;;;;;;5067534;28;44933;-71
2022/10/29 08:52:29;;;;;;;3.30;3.10;;;20.50;75.40;;;;;;5086307;28;43462;-71
2022/10/29 08:55:03;;;;;;;3.20;3.00;;;20.60;75.00;;;;;;5088458;27;43524;-70
2022/10/29 08:57:33;;;;;;;3.00;2.90;;;20.80;74.60;;;;;;5084031;28;43862;-70
2022/10/29 09:00:04;;;;;;;3.30;3.00;;;20.90;74.30;;;;;;5089461;28;43481;-71
2022/10/29 09:02:32;;;;;;;2.80;2.60;;;20.80;74.10;;;;;;5089832;28;43366;-72
2022/10/29 09:05:01;;;;;;;2.97;2.77;;;20.80;74.30;;;;;;5090207;28;43439;-71
2022/10/29 09:07:37;;;;;;;3.03;2.83;;;20.70;74.40;;;;;;5088958;28;43599;-71
2022/10/29 09:10:10;;;;;;;3.50;2.97;;;20.60;74.70;;;;;;5086369;27;43462;-71
2022/10/29 09:12:51;;;;;;;4.60;2.77;;;20.60;75.00;;;;;;5086552;28;43616;-71
2022/10/29 09:15:28;;;;;;;3.03;2.80;;;20.60;75.00;;;;;;5089681;28;43639;-70
2022/10/29 09:18:10;;;;;;;3.03;2.73;;;20.50;75.10;;;;;;5089311;28;43879;-70
2022/10/29 09:20:43;;;;;;;3.63;2.97;;;20.50;75.20;;;;;;5084150;28;43388;-71
2022/10/29 09:23:14;;;;;;;2.80;2.70;;;20.50;75.60;;;;;;5089496;28;43909;-72
2022/10/29 09:25:45;;;;;;;3.20;2.90;;;20.50;75.50;;;;;;5085281;28;43442;-71
2022/10/29 09:28:20;;;;;;;2.80;2.60;;;20.50;75.40;;;;;;5089235;28;43896;-71
2022/10/29 09:30:50;;;;;;;3.17;2.90;;;20.40;75.30;;;;;;5089430;28;43447;-70
2022/10/29 09:33:19;;;;;;;2.83;2.60;;;20.40;75.40;;;;;;5068341;28;44178;-71
2022/10/29 09:35:48;;;;;;;3.13;2.87;;;20.40;75.70;;;;;;5089175;28;43414;-73
2022/10/29 09:38:17;;;;;;;2.60;2.50;;;20.40;75.60;;;;;;5089006;28;43888;-71
2022/10/29 09:40:46;;;;;;;3.00;2.80;;;20.60;75.30;;;;;;5086607;28;43460;-71
2022/10/29 09:43:28;;;;;;;2.73;2.63;;;20.70;74.80;;;;;;5070722;28;43383;-70
2022/10/29 09:45:59;;;;;;;3.00;2.80;;;20.80;74.30;;;;;;5071019;28;44071;-72
2022/10/29 09:48:29;;;;;;;2.73;2.63;;;20.90;74.10;;;;;;5084003;28;43749;-70
2022/10/29 09:51:01;;;;;;;2.40;2.30;;;20.80;74.00;;;;;;5070641;28;44359;-72
2022/10/29 09:53:29;;;;;;;2.60;2.40;;;20.80;74.40;;;;;;5088860;28;43492;-72
2022/10/29 09:55:58;;;;;;;3.30;3.10;;;20.70;74.60;;;;;;5092334;27;43481;-71
2022/10/29 09:58:27;;;;;;;2.80;2.70;;;20.70;74.70;;;;;;5088752;28;43635;-71
2022/10/29 10:00:55;;;;;;;2.60;2.50;;;20.60;74.60;;;;;;5088128;28;43542;-71
2022/10/29 10:03:27;;;;;;;2.60;2.40;;;20.60;74.80;;;;;;5088461;28;43386;-71
2022/10/29 10:06:00;;;;;;;2.60;2.50;;;20.60;75.00;;;;;;5088067;27;44004;-71
2022/10/29 10:08:28;;;;;;;2.70;2.60;;;20.50;75.10;;;;;;5090008;27;45597;-72
2022/10/29 10:10:58;;;;;;;2.60;2.47;;;20.50;75.20;;;;;;5088743;28;43444;-71
2022/10/29 10:13:27;;;;;;;3.10;2.80;;;20.50;75.10;;;;;;5088801;28;43874;-72
2022/10/29 10:15:56;;;;;;;3.53;2.60;;;20.50;75.20;;;;;;5070118;28;43582;-72
2022/10/29 10:18:25;;;;;;;2.60;2.50;;;20.50;75.40;;;;;;5088278;28;43944;-71
2022/10/29 10:21:05;;;;;;;2.67;2.47;;;20.50;75.40;;;;;;5070200;28;44441;-71
2022/10/29 10:23:43;;;;;;;2.47;2.40;;;20.40;75.50;;;;;;5088592;28;43434;-71
2022/10/29 10:26:38;;;;;;;2.60;2.50;;;20.50;75.40;;;;;;5087539;28;43440;-72
2022/10/29 10:29:10;;;;;;;3.20;2.90;;;20.60;74.90;;;;;;5083292;28;43596;-72
2022/10/29 10:31:38;;;;;;;2.57;2.40;;;20.80;74.30;;;;;;5088364;28;43438;-72
2022/10/29 10:34:17;;;;;;;2.30;2.20;;;20.90;74.00;;;;;;5088130;28;43387;-71
2022/10/29 10:36:47;;;;;;;2.67;2.47;;;20.80;73.80;;;;;;5087399;28;43877;-72
2022/10/29 10:39:34;;;;;;;2.50;2.40;;;20.80;74.10;;;;;;5069501;28;45564;-72
2022/10/29 10:42:05;;;;;;;2.50;2.30;;;20.70;74.30;;;;;;5082318;28;43352;-70
2022/10/29 10:44:32;;;;;;;2.50;2.40;;;20.70;74.70;;;;;;5069662;28;43356;-71
2022/10/29 10:47:06;;;;;;;2.90;2.70;;;20.60;75.30;;;;;;5087286;28;43461;-71
2022/10/29 10:49:35;;;;;;;2.47;2.37;;;20.60;74.70;;;;;;5082755;27;43600;-71
2022/10/29 10:52:04;;;;;;;2.43;2.33;;;20.50;74.80;;;;;;5071840;28;44737;-71
2022/10/29 10:54:35;;;;;;;2.57;2.47;;;20.50;75.00;;;;;;5087782;28;43490;-71
2022/10/29 10:57:05;;;;;;;2.73;2.53;;;20.50;75.10;;;;;;5088499;28;43419;-73
2022/10/29 10:59:42;;;;;;;2.50;2.30;;;20.50;75.10;;;;;;5086786;28;43911;-72
2022/10/29 11:02:17;;;;;;;2.37;2.27;;;20.50;75.10;;;;;;5087328;28;43485;-71
2022/10/29 11:04:45;;;;;;;2.63;2.53;;;20.50;75.20;;;;;;5082229;28;43390;-72
2022/10/29 11:07:13;;;;;;;2.33;2.23;;;20.40;75.20;;;;;;5085813;28;43530;-71
2022/10/29 11:09:43;;;;;;;2.60;2.50;;;20.40;75.40;;;;;;5087230;28;43595;-72
2022/10/29 11:12:13;;;;;;;2.10;2.10;;;20.50;75.30;;;;;;5087527;28;43463;-71
2022/10/29 11:14:44;;;;;;;2.37;2.27;;;20.60;75.00;;;;;;5065826;28;43481;-71
2022/10/29 11:17:25;;;;;;;2.60;2.40;;;20.70;74.40;;;;;;5086744;28;43450;-71
2022/10/29 11:19:55;;;;;;;11.27;2.23;;;20.80;73.80;;;;;;5074044;28;45650;-71
2022/10/29 11:22:26;;;;;;;124.23;6.17;;;20.90;74.50;;;;;;5087096;28;43449;-72
2022/10/29 11:24:57;;;;;;;43.00;3.60;;;20.90;73.80;;;;;;5087596;28;43473;-70
2022/10/29 11:27:32;;;;;;;30.53;3.00;;;20.70;74.00;;;;;;5075776;28;44040;-71
2022/10/29 11:30:03;;;;;;;21.03;2.83;;;20.70;74.30;;;;;;5086534;28;43841;-70
2022/10/29 11:32:37;;;;;;;33.17;3.27;;;20.60;75.50;;;;;;5087394;28;43471;-70
2022/10/29 11:35:09;;;;;;;16.67;2.80;;;20.60;74.90;;;;;;5073427;28;43510;-71
2022/10/29 11:37:40;;;;;;;15.90;2.70;;;20.60;74.90;;;;;;5086023;28;43476;-71
2022/10/29 11:40:12;;;;;;;7.60;2.40;;;20.60;75.00;;;;;;5074899;28;44334;-73
2022/10/29 11:42:41;;;;;;;9.30;2.67;;;20.50;75.10;;;;;;5085085;28;44080;-69
2022/10/29 11:45:12;;;;;;;11.77;2.57;;;20.50;76.20;;;;;;5080828;28;43422;-71
2022/10/29 11:47:50;;;;;;;13.97;2.53;;;20.50;75.30;;;;;;5087464;28;44007;-71
2022/10/29 11:50:22;;;;;;;3.13;2.47;;;20.60;75.10;;;;;;5086939;28;43892;-73
2022/10/29 11:52:54;;;;;;;3.83;2.13;;;20.60;75.00;;;;;;5086977;28;43450;-71
2022/10/29 11:55:28;;;;;;;6.13;2.50;;;20.60;75.00;;;;;;5068084;28;43432;-71
2022/10/29 11:57:59;;;;;;;5.37;2.60;;;20.60;75.20;;;;;;5087516;28;43924;-72
2022/10/29 12:00:30;;;;;;;4.27;2.57;;;20.60;75.10;;;;;;5086648;28;43892;-71
2022/10/29 12:03:18;;;;;;;2.20;2.20;;;20.60;75.10;;;;;;5086908;28;43518;-71
2022/10/29 12:05:49;;;;;;;6.83;2.77;;;20.50;75.00;;;;;;5063946;28;43471;-71
2022/10/29 12:08:26;;;;;;;4.83;2.30;;;20.50;75.30;;;;;;5086838;28;43423;-72
2022/10/29 12:10:57;;;;;;;6.13;2.57;;;20.50;75.60;;;;;;5066955;28;44636;-72
2022/10/29 12:13:35;;;;;;;6.33;2.67;;;20.60;75.40;;;;;;5086816;28;44361;-71
2022/10/29 12:16:11;;;;;;;6.20;2.33;;;20.60;75.00;;;;;;5066073;28;43454;-73
2022/10/29 12:18:43;;;;;;;2.50;2.17;;;20.60;74.80;;;;;;5087311;28;43475;-71
2022/10/29 12:21:16;;;;;;;5.17;2.60;;;20.60;74.80;;;;;;5086528;28;43986;-72
2022/10/29 12:23:50;;;;;;;2.50;2.30;;;20.60;75.00;;;;;;5086520;28;43391;-71
2022/10/29 12:26:20;;;;;;;2.87;2.30;;;20.60;75.00;;;;;;5062114;28;43418;-71
2022/10/29 12:28:52;;;;;;;2.50;2.40;;;20.60;74.90;;;;;;5084302;27;43633;-71
2022/10/29 12:31:24;;;;;;;2.87;2.67;;;20.60;75.00;;;;;;5090237;28;43833;-72
2022/10/29 12:33:55;;;;;;;4.30;2.47;;;20.50;75.10;;;;;;5085487;28;43501;-72
2022/10/29 12:36:27;;;;;;;2.30;2.20;;;20.50;75.40;;;;;;5090091;28;44024;-73
2022/10/29 12:38:55;;;;;;;2.33;2.23;;;20.50;75.40;;;;;;5089672;27;43498;-72
2022/10/29 12:41:25;;;;;;;2.17;2.00;;;20.50;75.30;;;;;;5089314;28;43834;-71
2022/10/29 12:43:58;;;;;;;2.20;2.10;;;20.50;75.30;;;;;;5089761;28;44385;-71
2022/10/29 12:46:30;;;;;;;2.70;2.20;;;20.40;75.40;;;;;;5071503;28;43871;-72
2022/10/29 12:49:02;;;;;;;2.60;2.30;;;20.40;75.70;;;;;;5090573;28;43462;-71
2022/10/29 12:51:33;;;;;;;3.00;2.27;;;20.50;75.50;;;;;;5089775;27;44856;-71
2022/10/29 12:54:16;;;;;;;3.60;2.37;;;20.60;75.10;;;;;;5071975;28;44297;-72
2022/10/29 12:56:44;;;;;;;2.37;2.20;;;20.80;75.20;;;;;;5082797;28;43497;-72
2022/10/29 12:59:32;;;;;;;2.37;2.27;;;20.90;74.20;;;;;;5090259;28;43450;-71
2022/10/29 13:02:33;;;;;;;2.10;2.00;;;20.90;74.00;;;;;;5089813;28;43624;-71